sensor_id;sensor_type;location;lat;lon;timestamp;P1;durP1;ratioP1;P2;durP2;ratioP2
78774;SDS011;68119;43.398;3.676;2023-06-05T00:01:22;9.00;;;5.40;;
78774;SDS011;68119;43.398;3.676;2023-06-05T00:03:54;8.85;;;5.13;;
78774;SDS011;68119;43.398;3.676;2023-06-05T00:06:23;11.68;;;5.43;;
78774;SDS011;68119;43.398;3.676;2023-06-05T00:08:56;10.70;;;5.60;;
78774;SDS011;68119;43.398;3.676;2023-06-05T00:11:28;9.85;;;5.32;;
78774;SDS011;68119;43.398;3.676;2023-06-05T00:14:03;10.65;;;5.65;;
78774;SDS011;68119;43.398;3.676;2023-06-05T00:16:30;13.20;;;5.78;;
78774;SDS011;68119;43.398;3.676;2023-06-05T00:19:04;6.45;;;5.00;;
78774;SDS011;68119;43.398;3.676;2023-06-05T00:21:35;10.27;;;5.38;;
78774;SDS011;68119;43.398;3.676;2023-06-05T00:24:10;10.27;;;5.43;;
78774;SDS011;68119;43.398;3.676;2023-06-05T00:26:41;11.25;;;5.57;;
78774;SDS011;68119;43.398;3.676;2023-06-05T00:29:18;8.50;;;5.30;;
78774;SDS011;68119;43.398;3.676;2023-06-05T00:31:50;8.30;;;5.63;;
78774;SDS011;68119;43.398;3.676;2023-06-05T00:34:18;12.25;;;5.93;;
78774;SDS011;68119;43.398;3.676;2023-06-05T00:36:50;8.45;;;5.95;;
78774;SDS011;68119;43.398;3.676;2023-06-05T00:39:29;11.10;;;5.53;;
78774;SDS011;68119;43.398;3.676;2023-06-05T00:42:00;8.40;;;5.65;;
78774;SDS011;68119;43.398;3.676;2023-06-05T00:44:37;10.38;;;6.32;;
78774;SDS011;68119;43.398;3.676;2023-06-05T00:47:09;8.05;;;5.53;;
78774;SDS011;68119;43.398;3.676;2023-06-05T00:49:38;10.10;;;5.80;;
78774;SDS011;68119;43.398;3.676;2023-06-05T00:52:12;9.23;;;5.43;;
78774;SDS011;68119;43.398;3.676;2023-06-05T00:57:23;11.73;;;6.40;;
78774;SDS011;68119;43.398;3.676;2023-06-05T00:59:55;8.85;;;6.15;;
78774;SDS011;68119;43.398;3.676;2023-06-05T01:02:29;7.70;;;5.90;;
78774;SDS011;68119;43.398;3.676;2023-06-05T01:05:00;8.70;;;6.07;;
78774;SDS011;68119;43.398;3.676;2023-06-05T01:07:34;7.93;;;6.10;;
78774;SDS011;68119;43.398;3.676;2023-06-05T01:10:06;8.90;;;5.93;;
78774;SDS011;68119;43.398;3.676;2023-06-05T01:12:39;10.95;;;6.22;;
78774;SDS011;68119;43.398;3.676;2023-06-05T01:15:10;9.90;;;6.40;;
78774;SDS011;68119;43.398;3.676;2023-06-05T01:17:37;10.82;;;6.13;;
78774;SDS011;68119;43.398;3.676;2023-06-05T01:20:12;12.30;;;5.75;;
78774;SDS011;68119;43.398;3.676;2023-06-05T01:22:56;8.25;;;6.25;;
78774;SDS011;68119;43.398;3.676;2023-06-05T01:25:28;8.35;;;6.18;;
78774;SDS011;68119;43.398;3.676;2023-06-05T01:28:06;8.23;;;5.75;;
78774;SDS011;68119;43.398;3.676;2023-06-05T01:30:40;8.23;;;5.60;;
78774;SDS011;68119;43.398;3.676;2023-06-05T01:33:14;7.50;;;5.75;;
78774;SDS011;68119;43.398;3.676;2023-06-05T01:35:50;9.85;;;5.72;;
78774;SDS011;68119;43.398;3.676;2023-06-05T01:38:26;8.80;;;5.80;;
78774;SDS011;68119;43.398;3.676;2023-06-05T01:40:58;9.35;;;5.90;;
78774;SDS011;68119;43.398;3.676;2023-06-05T01:43:33;6.50;;;5.40;;
78774;SDS011;68119;43.398;3.676;2023-06-05T01:46:12;7.55;;;5.55;;
78774;SDS011;68119;43.398;3.676;2023-06-05T01:48:45;7.50;;;5.88;;
78774;SDS011;68119;43.398;3.676;2023-06-05T01:51:14;8.23;;;6.07;;
78774;SDS011;68119;43.398;3.676;2023-06-05T01:53:46;7.95;;;5.40;;
78774;SDS011;68119;43.398;3.676;2023-06-05T01:56:19;8.48;;;5.50;;
78774;SDS011;68119;43.398;3.676;2023-06-05T01:58:54;8.23;;;5.53;;
78774;SDS011;68119;43.398;3.676;2023-06-05T02:01:26;6.72;;;5.30;;
78774;SDS011;68119;43.398;3.676;2023-06-05T02:03:56;9.73;;;5.90;;
78774;SDS011;68119;43.398;3.676;2023-06-05T02:06:35;8.40;;;5.60;;
78774;SDS011;68119;43.398;3.676;2023-06-05T02:09:10;6.70;;;4.90;;
78774;SDS011;68119;43.398;3.676;2023-06-05T02:11:44;7.70;;;5.43;;
78774;SDS011;68119;43.398;3.676;2023-06-05T02:14:11;8.45;;;5.10;;
78774;SDS011;68119;43.398;3.676;2023-06-05T02:16:43;7.82;;;5.60;;
78774;SDS011;68119;43.398;3.676;2023-06-05T02:19:18;8.95;;;5.78;;
78774;SDS011;68119;43.398;3.676;2023-06-05T02:21:50;6.90;;;5.53;;
78774;SDS011;68119;43.398;3.676;2023-06-05T02:24:19;6.80;;;5.55;;
78774;SDS011;68119;43.398;3.676;2023-06-05T02:26:53;8.50;;;5.55;;
78774;SDS011;68119;43.398;3.676;2023-06-05T02:29:27;6.40;;;5.40;;
78774;SDS011;68119;43.398;3.676;2023-06-05T02:32:03;10.50;;;5.55;;
78774;SDS011;68119;43.398;3.676;2023-06-05T02:34:37;8.27;;;5.43;;
78774;SDS011;68119;43.398;3.676;2023-06-05T02:37:09;8.48;;;5.68;;
78774;SDS011;68119;43.398;3.676;2023-06-05T02:39:42;8.20;;;6.13;;
78774;SDS011;68119;43.398;3.676;2023-06-05T02:42:16;7.32;;;6.25;;
78774;SDS011;68119;43.398;3.676;2023-06-05T02:44:49;8.98;;;6.13;;
78774;SDS011;68119;43.398;3.676;2023-06-05T02:47:18;8.82;;;5.78;;
78774;SDS011;68119;43.398;3.676;2023-06-05T02:49:50;8.18;;;6.13;;
78774;SDS011;68119;43.398;3.676;2023-06-05T02:52:26;8.25;;;5.80;;
78774;SDS011;68119;43.398;3.676;2023-06-05T02:55:05;10.90;;;7.03;;
78774;SDS011;68119;43.398;3.676;2023-06-05T02:57:40;9.68;;;6.95;;
78774;SDS011;68119;43.398;3.676;2023-06-05T03:00:12;10.93;;;7.00;;
78774;SDS011;68119;43.398;3.676;2023-06-05T03:02:49;10.93;;;7.28;;
78774;SDS011;68119;43.398;3.676;2023-06-05T03:05:21;10.18;;;7.38;;
78774;SDS011;68119;43.398;3.676;2023-06-05T03:07:54;11.48;;;7.55;;
78774;SDS011;68119;43.398;3.676;2023-06-05T03:10:21;10.43;;;8.45;;
78774;SDS011;68119;43.398;3.676;2023-06-05T03:12:55;11.55;;;7.72;;
78774;SDS011;68119;43.398;3.676;2023-06-05T03:15:27;10.35;;;8.00;;
78774;SDS011;68119;43.398;3.676;2023-06-05T03:17:59;12.00;;;8.13;;
78774;SDS011;68119;43.398;3.676;2023-06-05T03:20:33;11.73;;;7.90;;
78774;SDS011;68119;43.398;3.676;2023-06-05T03:23:05;9.68;;;7.15;;
78774;SDS011;68119;43.398;3.676;2023-06-05T03:25:39;9.57;;;7.65;;
78774;SDS011;68119;43.398;3.676;2023-06-05T03:28:08;8.30;;;7.10;;
78774;SDS011;68119;43.398;3.676;2023-06-05T03:30:36;9.52;;;7.40;;
78774;SDS011;68119;43.398;3.676;2023-06-05T03:33:07;9.30;;;7.38;;
78774;SDS011;68119;43.398;3.676;2023-06-05T03:35:38;11.13;;;7.90;;
78774;SDS011;68119;43.398;3.676;2023-06-05T03:38:07;8.25;;;6.95;;
78774;SDS011;68119;43.398;3.676;2023-06-05T03:40:41;9.65;;;6.75;;
78774;SDS011;68119;43.398;3.676;2023-06-05T03:43:18;10.65;;;7.40;;
78774;SDS011;68119;43.398;3.676;2023-06-05T03:45:50;8.50;;;7.20;;
78774;SDS011;68119;43.398;3.676;2023-06-05T03:48:22;9.68;;;7.20;;
78774;SDS011;68119;43.398;3.676;2023-06-05T03:50:59;11.18;;;7.68;;
78774;SDS011;68119;43.398;3.676;2023-06-05T03:53:33;8.27;;;7.25;;
78774;SDS011;68119;43.398;3.676;2023-06-05T03:56:10;10.30;;;7.38;;
78774;SDS011;68119;43.398;3.676;2023-06-05T03:58:46;8.57;;;7.13;;
78774;SDS011;68119;43.398;3.676;2023-06-05T04:01:18;8.05;;;7.25;;
78774;SDS011;68119;43.398;3.676;2023-06-05T04:03:54;9.82;;;7.65;;
78774;SDS011;68119;43.398;3.676;2023-06-05T04:06:31;9.98;;;7.28;;
78774;SDS011;68119;43.398;3.676;2023-06-05T04:09:04;8.45;;;7.57;;
78774;SDS011;68119;43.398;3.676;2023-06-05T04:11:51;10.45;;;7.93;;
78774;SDS011;68119;43.398;3.676;2023-06-05T04:14:24;9.73;;;7.93;;
78774;SDS011;68119;43.398;3.676;2023-06-05T04:16:56;10.05;;;8.00;;
78774;SDS011;68119;43.398;3.676;2023-06-05T04:19:30;12.52;;;8.18;;
78774;SDS011;68119;43.398;3.676;2023-06-05T04:21:59;11.32;;;8.40;;
78774;SDS011;68119;43.398;3.676;2023-06-05T04:24:28;14.45;;;8.70;;
78774;SDS011;68119;43.398;3.676;2023-06-05T04:26:59;9.90;;;7.85;;
78774;SDS011;68119;43.398;3.676;2023-06-05T04:29:28;11.55;;;8.30;;
78774;SDS011;68119;43.398;3.676;2023-06-05T04:31:59;9.85;;;8.70;;
78774;SDS011;68119;43.398;3.676;2023-06-05T04:34:25;11.05;;;8.23;;
78774;SDS011;68119;43.398;3.676;2023-06-05T04:36:58;10.50;;;8.48;;
78774;SDS011;68119;43.398;3.676;2023-06-05T04:39:34;10.95;;;8.20;;
78774;SDS011;68119;43.398;3.676;2023-06-05T04:42:05;12.27;;;8.15;;
78774;SDS011;68119;43.398;3.676;2023-06-05T04:44:39;12.25;;;8.45;;
78774;SDS011;68119;43.398;3.676;2023-06-05T04:47:16;9.80;;;8.25;;
78774;SDS011;68119;43.398;3.676;2023-06-05T04:52:27;11.13;;;7.95;;
78774;SDS011;68119;43.398;3.676;2023-06-05T04:55:00;11.90;;;8.38;;
78774;SDS011;68119;43.398;3.676;2023-06-05T04:57:32;11.38;;;7.70;;
78774;SDS011;68119;43.398;3.676;2023-06-05T05:00:01;11.38;;;8.07;;
78774;SDS011;68119;43.398;3.676;2023-06-05T05:02:38;11.02;;;8.43;;
78774;SDS011;68119;43.398;3.676;2023-06-05T05:05:07;12.07;;;7.70;;
78774;SDS011;68119;43.398;3.676;2023-06-05T05:07:44;12.38;;;7.90;;
78774;SDS011;68119;43.398;3.676;2023-06-05T05:10:13;9.85;;;8.10;;
78774;SDS011;68119;43.398;3.676;2023-06-05T05:12:46;10.13;;;7.78;;
78774;SDS011;68119;43.398;3.676;2023-06-05T05:15:17;13.55;;;7.85;;
78774;SDS011;68119;43.398;3.676;2023-06-05T05:17:52;11.68;;;9.00;;
78774;SDS011;68119;43.398;3.676;2023-06-05T05:20:24;12.07;;;8.32;;
78774;SDS011;68119;43.398;3.676;2023-06-05T05:22:55;13.25;;;9.43;;
78774;SDS011;68119;43.398;3.676;2023-06-05T05:25:29;11.90;;;9.23;;
78774;SDS011;68119;43.398;3.676;2023-06-05T05:28:05;14.40;;;10.43;;
78774;SDS011;68119;43.398;3.676;2023-06-05T05:30:42;15.23;;;10.70;;
78774;SDS011;68119;43.398;3.676;2023-06-05T05:33:19;18.92;;;13.98;;
78774;SDS011;68119;43.398;3.676;2023-06-05T05:38:35;17.80;;;12.63;;
78774;SDS011;68119;43.398;3.676;2023-06-05T05:41:03;25.67;;;13.25;;
78774;SDS011;68119;43.398;3.676;2023-06-05T05:43:30;20.23;;;13.35;;
78774;SDS011;68119;43.398;3.676;2023-06-05T05:46:02;20.13;;;13.13;;
78774;SDS011;68119;43.398;3.676;2023-06-05T05:48:39;19.25;;;12.95;;
78774;SDS011;68119;43.398;3.676;2023-06-05T05:51:09;22.35;;;12.40;;
78774;SDS011;68119;43.398;3.676;2023-06-05T05:53:43;19.50;;;12.65;;
78774;SDS011;68119;43.398;3.676;2023-06-05T05:56:15;18.17;;;12.63;;
78774;SDS011;68119;43.398;3.676;2023-06-05T05:58:56;16.65;;;12.55;;
78774;SDS011;68119;43.398;3.676;2023-06-05T06:01:27;16.42;;;12.80;;
78774;SDS011;68119;43.398;3.676;2023-06-05T06:04:01;21.60;;;11.98;;
78774;SDS011;68119;43.398;3.676;2023-06-05T06:06:33;18.10;;;12.50;;
78774;SDS011;68119;43.398;3.676;2023-06-05T06:09:00;14.85;;;11.05;;
78774;SDS011;68119;43.398;3.676;2023-06-05T06:11:38;12.80;;;10.23;;
78774;SDS011;68119;43.398;3.676;2023-06-05T06:14:07;14.68;;;10.50;;
78774;SDS011;68119;43.398;3.676;2023-06-05T06:16:36;14.38;;;9.20;;
78774;SDS011;68119;43.398;3.676;2023-06-05T06:19:15;12.27;;;8.75;;
78774;SDS011;68119;43.398;3.676;2023-06-05T06:21:47;16.75;;;8.95;;
78774;SDS011;68119;43.398;3.676;2023-06-05T06:24:15;14.80;;;8.15;;
78774;SDS011;68119;43.398;3.676;2023-06-05T06:29:32;16.27;;;8.88;;
78774;SDS011;68119;43.398;3.676;2023-06-05T06:32:03;13.40;;;8.85;;
78774;SDS011;68119;43.398;3.676;2023-06-05T06:34:43;13.93;;;9.48;;
78774;SDS011;68119;43.398;3.676;2023-06-05T06:37:15;13.75;;;8.52;;
78774;SDS011;68119;43.398;3.676;2023-06-05T06:39:47;16.23;;;8.98;;
78774;SDS011;68119;43.398;3.676;2023-06-05T06:42:13;14.40;;;9.60;;
78774;SDS011;68119;43.398;3.676;2023-06-05T06:44:49;14.35;;;8.93;;
78774;SDS011;68119;43.398;3.676;2023-06-05T06:47:38;14.75;;;8.55;;
78774;SDS011;68119;43.398;3.676;2023-06-05T06:50:11;13.15;;;7.13;;
78774;SDS011;68119;43.398;3.676;2023-06-05T06:52:40;12.23;;;7.38;;
78774;SDS011;68119;43.398;3.676;2023-06-05T06:55:12;11.15;;;6.50;;
78774;SDS011;68119;43.398;3.676;2023-06-05T06:57:43;13.13;;;7.20;;
78774;SDS011;68119;43.398;3.676;2023-06-05T07:00:23;12.60;;;7.78;;
78774;SDS011;68119;43.398;3.676;2023-06-05T07:02:55;11.82;;;7.30;;
78774;SDS011;68119;43.398;3.676;2023-06-05T07:05:29;11.80;;;8.15;;
78774;SDS011;68119;43.398;3.676;2023-06-05T07:08:01;9.25;;;7.18;;
78774;SDS011;68119;43.398;3.676;2023-06-05T07:10:33;14.27;;;8.23;;
78774;SDS011;68119;43.398;3.676;2023-06-05T07:13:05;10.88;;;6.93;;
78774;SDS011;68119;43.398;3.676;2023-06-05T07:15:31;11.32;;;7.75;;
78774;SDS011;68119;43.398;3.676;2023-06-05T07:18:02;10.57;;;7.63;;
78774;SDS011;68119;43.398;3.676;2023-06-05T07:20:36;12.95;;;8.30;;
78774;SDS011;68119;43.398;3.676;2023-06-05T07:23:07;14.07;;;7.93;;
78774;SDS011;68119;43.398;3.676;2023-06-05T07:25:41;11.25;;;7.97;;
78774;SDS011;68119;43.398;3.676;2023-06-05T07:28:15;13.02;;;7.20;;
78774;SDS011;68119;43.398;3.676;2023-06-05T07:30:47;9.93;;;7.45;;
78774;SDS011;68119;43.398;3.676;2023-06-05T07:33:20;14.15;;;7.80;;
78774;SDS011;68119;43.398;3.676;2023-06-05T07:35:53;9.88;;;6.78;;
78774;SDS011;68119;43.398;3.676;2023-06-05T07:38:24;10.15;;;7.95;;
78774;SDS011;68119;43.398;3.676;2023-06-05T07:40:57;10.07;;;6.60;;
78774;SDS011;68119;43.398;3.676;2023-06-05T07:43:29;10.30;;;8.32;;
78774;SDS011;68119;43.398;3.676;2023-06-05T07:46:01;9.75;;;7.70;;
78774;SDS011;68119;43.398;3.676;2023-06-05T07:48:32;12.23;;;8.00;;
78774;SDS011;68119;43.398;3.676;2023-06-05T07:51:04;12.48;;;7.80;;
78774;SDS011;68119;43.398;3.676;2023-06-05T07:53:38;12.60;;;7.88;;
78774;SDS011;68119;43.398;3.676;2023-06-05T07:56:10;12.20;;;7.43;;
78774;SDS011;68119;43.398;3.676;2023-06-05T07:58:42;9.18;;;6.95;;
78774;SDS011;68119;43.398;3.676;2023-06-05T08:01:09;8.43;;;6.88;;
78774;SDS011;68119;43.398;3.676;2023-06-05T08:03:43;10.25;;;6.65;;
78774;SDS011;68119;43.398;3.676;2023-06-05T08:06:19;9.77;;;6.53;;
78774;SDS011;68119;43.398;3.676;2023-06-05T08:08:51;9.55;;;6.53;;
78774;SDS011;68119;43.398;3.676;2023-06-05T08:11:23;11.23;;;6.35;;
78774;SDS011;68119;43.398;3.676;2023-06-05T08:13:54;11.23;;;6.35;;
78774;SDS011;68119;43.398;3.676;2023-06-05T08:16:24;9.90;;;6.70;;
78774;SDS011;68119;43.398;3.676;2023-06-05T08:18:56;8.25;;;5.95;;
78774;SDS011;68119;43.398;3.676;2023-06-05T08:21:30;8.93;;;6.15;;
78774;SDS011;68119;43.398;3.676;2023-06-05T08:24:02;9.15;;;6.00;;
78774;SDS011;68119;43.398;3.676;2023-06-05T08:26:33;7.47;;;6.32;;
78774;SDS011;68119;43.398;3.676;2023-06-05T08:29:05;12.20;;;7.30;;
78774;SDS011;68119;43.398;3.676;2023-06-05T08:31:37;10.43;;;6.38;;
78774;SDS011;68119;43.398;3.676;2023-06-05T08:34:08;9.70;;;6.38;;
78774;SDS011;68119;43.398;3.676;2023-06-05T08:36:41;9.10;;;6.13;;
78774;SDS011;68119;43.398;3.676;2023-06-05T08:39:13;10.50;;;6.03;;
78774;SDS011;68119;43.398;3.676;2023-06-05T08:41:48;10.20;;;6.63;;
78774;SDS011;68119;43.398;3.676;2023-06-05T08:44:26;9.80;;;6.43;;
78774;SDS011;68119;43.398;3.676;2023-06-05T08:47:03;9.30;;;6.13;;
78774;SDS011;68119;43.398;3.676;2023-06-05T08:49:39;10.57;;;6.57;;
78774;SDS011;68119;43.398;3.676;2023-06-05T08:54:58;8.48;;;6.10;;
78774;SDS011;68119;43.398;3.676;2023-06-05T08:57:30;9.43;;;6.80;;
78774;SDS011;68119;43.398;3.676;2023-06-05T09:00:01;8.75;;;6.10;;
78774;SDS011;68119;43.398;3.676;2023-06-05T09:02:42;7.80;;;5.75;;
78774;SDS011;68119;43.398;3.676;2023-06-05T09:07:56;9.60;;;5.90;;
78774;SDS011;68119;43.398;3.676;2023-06-05T09:10:30;9.77;;;6.32;;
78774;SDS011;68119;43.398;3.676;2023-06-05T09:13:00;7.78;;;5.63;;
78774;SDS011;68119;43.398;3.676;2023-06-05T09:15:37;10.30;;;5.60;;
78774;SDS011;68119;43.398;3.676;2023-06-05T09:18:11;8.13;;;5.80;;
78774;SDS011;68119;43.398;3.676;2023-06-05T09:28:45;9.43;;;5.93;;
78774;SDS011;68119;43.398;3.676;2023-06-05T09:31:24;7.72;;;5.38;;
78774;SDS011;68119;43.398;3.676;2023-06-05T09:33:58;8.75;;;5.55;;
78774;SDS011;68119;43.398;3.676;2023-06-05T09:36:33;7.60;;;5.72;;
78774;SDS011;68119;43.398;3.676;2023-06-05T09:39:14;7.35;;;5.63;;
78774;SDS011;68119;43.398;3.676;2023-06-05T09:41:49;9.50;;;6.35;;
78774;SDS011;68119;43.398;3.676;2023-06-05T09:44:22;10.07;;;6.03;;
78774;SDS011;68119;43.398;3.676;2023-06-05T09:46:55;8.80;;;5.65;;
78774;SDS011;68119;43.398;3.676;2023-06-05T09:49:30;8.18;;;5.80;;
78774;SDS011;68119;43.398;3.676;2023-06-05T09:52:01;10.63;;;6.15;;
78774;SDS011;68119;43.398;3.676;2023-06-05T09:54:36;9.55;;;5.97;;
78774;SDS011;68119;43.398;3.676;2023-06-05T09:57:10;11.30;;;6.20;;
78774;SDS011;68119;43.398;3.676;2023-06-05T10:00:12;8.07;;;6.00;;
78774;SDS011;68119;43.398;3.676;2023-06-05T10:02:38;11.13;;;5.85;;
78774;SDS011;68119;43.398;3.676;2023-06-05T10:05:27;8.70;;;5.40;;
78774;SDS011;68119;43.398;3.676;2023-06-05T10:07:56;8.48;;;5.32;;
78774;SDS011;68119;43.398;3.676;2023-06-05T10:10:29;7.95;;;5.80;;
78774;SDS011;68119;43.398;3.676;2023-06-05T10:12:57;8.55;;;5.35;;
78774;SDS011;68119;43.398;3.676;2023-06-05T10:15:26;10.05;;;6.13;;
78774;SDS011;68119;43.398;3.676;2023-06-05T10:17:56;8.15;;;5.75;;
78774;SDS011;68119;43.398;3.676;2023-06-05T10:20:25;9.77;;;6.13;;
78774;SDS011;68119;43.398;3.676;2023-06-05T10:22:54;10.40;;;6.35;;
78774;SDS011;68119;43.398;3.676;2023-06-05T10:25:21;8.65;;;5.95;;
78774;SDS011;68119;43.398;3.676;2023-06-05T10:28:36;9.57;;;6.40;;
78774;SDS011;68119;43.398;3.676;2023-06-05T10:36:10;10.75;;;6.20;;
78774;SDS011;68119;43.398;3.676;2023-06-05T10:38:55;6.97;;;5.32;;
78774;SDS011;68119;43.398;3.676;2023-06-05T10:41:27;10.30;;;5.82;;
78774;SDS011;68119;43.398;3.676;2023-06-05T10:44:02;8.60;;;5.45;;
78774;SDS011;68119;43.398;3.676;2023-06-05T10:46:41;8.55;;;5.35;;
78774;SDS011;68119;43.398;3.676;2023-06-05T10:49:14;6.72;;;4.43;;
78774;SDS011;68119;43.398;3.676;2023-06-05T10:54:17;8.73;;;4.20;;
78774;SDS011;68119;43.398;3.676;2023-06-05T10:57:05;8.82;;;3.85;;
78774;SDS011;68119;43.398;3.676;2023-06-05T10:59:39;7.53;;;4.07;;
78774;SDS011;68119;43.398;3.676;2023-06-05T11:07:22;8.18;;;4.20;;
78774;SDS011;68119;43.398;3.676;2023-06-05T11:10:09;9.70;;;3.53;;
78774;SDS011;68119;43.398;3.676;2023-06-05T11:12:56;6.78;;;3.70;;
78774;SDS011;68119;43.398;3.676;2023-06-05T11:18:36;7.43;;;3.60;;
78774;SDS011;68119;43.398;3.676;2023-06-05T11:21:11;7.22;;;3.65;;
78774;SDS011;68119;43.398;3.676;2023-06-05T11:23:43;6.60;;;3.60;;
78774;SDS011;68119;43.398;3.676;2023-06-05T11:26:45;6.97;;;3.38;;
78774;SDS011;68119;43.398;3.676;2023-06-05T11:29:40;6.63;;;3.80;;
78774;SDS011;68119;43.398;3.676;2023-06-05T11:32:17;7.57;;;3.35;;
78774;SDS011;68119;43.398;3.676;2023-06-05T11:34:52;8.30;;;3.15;;
78774;SDS011;68119;43.398;3.676;2023-06-05T11:37:27;5.65;;;3.22;;
78774;SDS011;68119;43.398;3.676;2023-06-05T11:39:59;6.78;;;3.10;;
78774;SDS011;68119;43.398;3.676;2023-06-05T11:42:30;6.20;;;3.20;;
78774;SDS011;68119;43.398;3.676;2023-06-05T11:45:02;6.15;;;3.17;;
78774;SDS011;68119;43.398;3.676;2023-06-05T11:47:36;5.82;;;2.85;;
78774;SDS011;68119;43.398;3.676;2023-06-05T11:50:16;3.53;;;2.47;;
78774;SDS011;68119;43.398;3.676;2023-06-05T11:52:48;6.88;;;2.90;;
78774;SDS011;68119;43.398;3.676;2023-06-05T11:55:17;5.32;;;2.60;;
78774;SDS011;68119;43.398;3.676;2023-06-05T11:57:54;4.97;;;2.55;;
78774;SDS011;68119;43.398;3.676;2023-06-05T12:00:28;4.63;;;2.55;;
78774;SDS011;68119;43.398;3.676;2023-06-05T12:03:00;4.80;;;2.40;;
78774;SDS011;68119;43.398;3.676;2023-06-05T12:05:37;5.20;;;2.30;;
78774;SDS011;68119;43.398;3.676;2023-06-05T12:10:56;5.28;;;2.30;;
78774;SDS011;68119;43.398;3.676;2023-06-05T12:13:46;3.90;;;2.30;;
78774;SDS011;68119;43.398;3.676;2023-06-05T12:16:14;4.80;;;2.70;;
78774;SDS011;68119;43.398;3.676;2023-06-05T12:18:49;4.65;;;2.25;;
78774;SDS011;68119;43.398;3.676;2023-06-05T12:21:26;4.82;;;2.40;;
78774;SDS011;68119;43.398;3.676;2023-06-05T12:24:05;5.57;;;2.30;;
78774;SDS011;68119;43.398;3.676;2023-06-05T12:26:50;4.30;;;2.15;;
78774;SDS011;68119;43.398;3.676;2023-06-05T12:29:31;4.63;;;2.42;;
78774;SDS011;68119;43.398;3.676;2023-06-05T12:32:18;5.18;;;2.30;;
78774;SDS011;68119;43.398;3.676;2023-06-05T12:34:52;9.63;;;2.80;;
78774;SDS011;68119;43.398;3.676;2023-06-05T12:37:26;5.70;;;2.50;;
78774;SDS011;68119;43.398;3.676;2023-06-05T12:39:58;4.05;;;2.30;;
78774;SDS011;68119;43.398;3.676;2023-06-05T12:44:58;4.72;;;2.45;;
78774;SDS011;68119;43.398;3.676;2023-06-05T12:47:27;3.33;;;2.20;;
78774;SDS011;68119;43.398;3.676;2023-06-05T12:49:59;5.28;;;2.45;;
78774;SDS011;68119;43.398;3.676;2023-06-05T12:52:33;4.15;;;2.20;;
78774;SDS011;68119;43.398;3.676;2023-06-05T12:55:02;3.75;;;2.17;;
78774;SDS011;68119;43.398;3.676;2023-06-05T12:57:37;4.88;;;2.13;;
78774;SDS011;68119;43.398;3.676;2023-06-05T13:00:09;3.97;;;2.42;;
78774;SDS011;68119;43.398;3.676;2023-06-05T13:02:42;4.55;;;2.22;;
78774;SDS011;68119;43.398;3.676;2023-06-05T13:05:20;5.53;;;2.30;;
78774;SDS011;68119;43.398;3.676;2023-06-05T13:07:59;4.15;;;2.17;;
78774;SDS011;68119;43.398;3.676;2023-06-05T13:10:33;3.97;;;2.10;;
78774;SDS011;68119;43.398;3.676;2023-06-05T13:13:07;4.38;;;2.20;;
78774;SDS011;68119;43.398;3.676;2023-06-05T13:15:44;5.05;;;2.33;;
78774;SDS011;68119;43.398;3.676;2023-06-05T13:18:15;6.00;;;2.55;;
78774;SDS011;68119;43.398;3.676;2023-06-05T13:20:49;5.22;;;2.60;;
78774;SDS011;68119;43.398;3.676;2023-06-05T13:23:23;7.38;;;2.92;;
78774;SDS011;68119;43.398;3.676;2023-06-05T13:25:57;6.78;;;2.70;;
78774;SDS011;68119;43.398;3.676;2023-06-05T13:28:26;7.82;;;2.80;;
78774;SDS011;68119;43.398;3.676;2023-06-05T13:31:00;7.28;;;3.08;;
78774;SDS011;68119;43.398;3.676;2023-06-05T13:33:33;6.60;;;2.97;;
78774;SDS011;68119;43.398;3.676;2023-06-05T13:36:09;7.35;;;3.20;;
78774;SDS011;68119;43.398;3.676;2023-06-05T13:38:35;7.35;;;3.17;;
78774;SDS011;68119;43.398;3.676;2023-06-05T13:41:04;6.45;;;3.05;;
78774;SDS011;68119;43.398;3.676;2023-06-05T13:43:31;7.20;;;2.90;;
78774;SDS011;68119;43.398;3.676;2023-06-05T13:46:02;6.45;;;3.47;;
78774;SDS011;68119;43.398;3.676;2023-06-05T13:48:31;10.93;;;3.22;;
78774;SDS011;68119;43.398;3.676;2023-06-05T13:51:03;6.35;;;3.17;;
78774;SDS011;68119;43.398;3.676;2023-06-05T13:53:37;8.88;;;3.20;;
78774;SDS011;68119;43.398;3.676;2023-06-05T13:56:03;8.90;;;3.47;;
78774;SDS011;68119;43.398;3.676;2023-06-05T13:58:38;9.25;;;3.22;;
78774;SDS011;68119;43.398;3.676;2023-06-05T14:01:04;6.72;;;3.40;;
78774;SDS011;68119;43.398;3.676;2023-06-05T14:03:33;8.85;;;3.40;;
78774;SDS011;68119;43.398;3.676;2023-06-05T14:06:04;8.85;;;3.50;;
78774;SDS011;68119;43.398;3.676;2023-06-05T14:08:31;7.35;;;3.40;;
78774;SDS011;68119;43.398;3.676;2023-06-05T14:11:09;8.27;;;3.67;;
78774;SDS011;68119;43.398;3.676;2023-06-05T14:13:35;6.75;;;3.22;;
78774;SDS011;68119;43.398;3.676;2023-06-05T14:16:07;6.50;;;3.15;;
78774;SDS011;68119;43.398;3.676;2023-06-05T14:18:39;9.27;;;3.35;;
78774;SDS011;68119;43.398;3.676;2023-06-05T14:21:08;7.85;;;3.53;;
78774;SDS011;68119;43.398;3.676;2023-06-05T14:23:37;9.55;;;3.40;;
78774;SDS011;68119;43.398;3.676;2023-06-05T14:26:07;8.10;;;3.80;;
78774;SDS011;68119;43.398;3.676;2023-06-05T14:28:36;7.15;;;3.70;;
78774;SDS011;68119;43.398;3.676;2023-06-05T14:31:05;8.57;;;4.22;;
78774;SDS011;68119;43.398;3.676;2023-06-05T14:33:31;7.85;;;3.58;;
78774;SDS011;68119;43.398;3.676;2023-06-05T14:36:00;7.93;;;3.50;;
78774;SDS011;68119;43.398;3.676;2023-06-05T14:38:29;7.95;;;3.35;;
78774;SDS011;68119;43.398;3.676;2023-06-05T14:40:58;6.97;;;3.28;;
78774;SDS011;68119;43.398;3.676;2023-06-05T14:43:28;8.15;;;3.85;;
78774;SDS011;68119;43.398;3.676;2023-06-05T14:45:57;6.47;;;3.63;;
78774;SDS011;68119;43.398;3.676;2023-06-05T14:50:53;5.97;;;2.95;;
78774;SDS011;68119;43.398;3.676;2023-06-05T14:53:35;6.90;;;3.88;;
78774;SDS011;68119;43.398;3.676;2023-06-05T14:56:04;10.00;;;3.70;;
78774;SDS011;68119;43.398;3.676;2023-06-05T14:58:36;8.57;;;3.70;;
78774;SDS011;68119;43.398;3.676;2023-06-05T15:01:08;6.82;;;3.20;;
78774;SDS011;68119;43.398;3.676;2023-06-05T15:03:49;7.43;;;3.97;;
78774;SDS011;68119;43.398;3.676;2023-06-05T15:06:23;6.38;;;3.50;;
78774;SDS011;68119;43.398;3.676;2023-06-05T15:08:58;7.18;;;3.47;;
78774;SDS011;68119;43.398;3.676;2023-06-05T15:11:26;7.53;;;3.70;;
78774;SDS011;68119;43.398;3.676;2023-06-05T15:13:58;7.18;;;3.67;;
78774;SDS011;68119;43.398;3.676;2023-06-05T15:16:42;7.78;;;3.97;;
78774;SDS011;68119;43.398;3.676;2023-06-05T15:19:16;13.05;;;4.10;;
78774;SDS011;68119;43.398;3.676;2023-06-05T15:21:47;9.52;;;3.55;;
78774;SDS011;68119;43.398;3.676;2023-06-05T15:24:19;8.40;;;3.72;;
78774;SDS011;68119;43.398;3.676;2023-06-05T15:26:50;7.95;;;3.97;;
78774;SDS011;68119;43.398;3.676;2023-06-05T15:29:22;10.52;;;4.47;;
78774;SDS011;68119;43.398;3.676;2023-06-05T15:31:49;11.27;;;4.18;;
78774;SDS011;68119;43.398;3.676;2023-06-05T15:34:26;7.68;;;3.90;;
78774;SDS011;68119;43.398;3.676;2023-06-05T15:36:59;8.55;;;3.42;;
78774;SDS011;68119;43.398;3.676;2023-06-05T15:39:34;9.07;;;3.97;;
78774;SDS011;68119;43.398;3.676;2023-06-05T15:42:06;7.60;;;4.00;;
78774;SDS011;68119;43.398;3.676;2023-06-05T15:44:40;8.68;;;4.13;;
78774;SDS011;68119;43.398;3.676;2023-06-05T15:47:08;7.32;;;3.60;;
78774;SDS011;68119;43.398;3.676;2023-06-05T15:49:39;5.85;;;3.50;;
78774;SDS011;68119;43.398;3.676;2023-06-05T15:52:14;8.35;;;3.83;;
78774;SDS011;68119;43.398;3.676;2023-06-05T15:54:43;7.70;;;3.70;;
78774;SDS011;68119;43.398;3.676;2023-06-05T15:57:12;9.25;;;3.53;;
78774;SDS011;68119;43.398;3.676;2023-06-05T15:59:41;6.55;;;3.50;;
78774;SDS011;68119;43.398;3.676;2023-06-05T16:02:10;6.07;;;3.50;;
78774;SDS011;68119;43.398;3.676;2023-06-05T16:04:41;7.15;;;3.95;;
78774;SDS011;68119;43.398;3.676;2023-06-05T16:07:16;8.93;;;3.83;;